Time;durP1;ratioP1;P1;durP2;ratioP2;P2;SDS_P1;SDS_P2;PMS_P1;PMS_P2;Temp;Humidity;BMP_temperature;BMP_pressure;BME280_temperature;BME280_humidity;BME280_pressure;Samples;Min_cycle;Max_cycle;Signal;HPM_P1;HPM_P2
2023/02/27 00:00:58;;;;;;;7.53;1.33;;;;;;;14.96;51.48;103347.94;5071717;28;20024;-70
2023/02/27 00:03:24;;;;;;;2.92;1.13;;;;;;;14.91;50.47;103351.53;5071488;28;20036;-69
2023/02/27 00:05:50;;;;;;;4.70;1.33;;;;;;;14.87;50.47;103350.44;5071498;28;20108;-69
2023/02/27 00:08:15;;;;;;;5.25;1.35;;;;;;;14.73;51.61;103354.03;5071973;28;20036;-68
2023/02/27 00:10:41;;;;;;;4.30;1.30;;;;;;;14.68;53.33;103358.47;5072733;28;20032;-69
2023/02/27 00:13:06;;;;;;;7.32;1.67;;;;;;;15.02;52.24;103360.59;5072598;28;20093;-70
2023/02/27 00:15:32;;;;;;;8.02;1.63;;;;;;;15.05;51.21;103356.47;5072868;28;20102;-69
2023/02/27 00:17:58;;;;;;;5.68;1.17;;;;;;;14.94;51.15;103359.22;5072506;28;20078;-70
2023/02/27 00:20:25;;;;;;;4.97;1.23;;;;;;;14.90;51.50;103360.09;5054713;28;20025;-69
2023/02/27 00:22:50;;;;;;;22.30;2.85;;;;;;;14.99;51.70;103361.16;5072789;28;20033;-69
2023/02/27 00:25:17;;;;;;;5.25;1.67;;;;;;;14.92;52.00;103357.88;5072466;28;20453;-69
2023/02/27 00:27:42;;;;;;;10.20;2.90;;;;;;;15.11;52.39;103363.59;5072257;28;20115;-69
2023/02/27 00:30:11;;;;;;;5.10;1.90;;;;;;;15.21;53.09;103360.81;5072483;28;20451;-70
2023/02/27 00:32:37;;;;;;;4.55;2.00;;;;;;;15.05;53.78;103356.47;5072127;28;20066;-68
2023/02/27 00:35:07;;;;;;;8.55;1.70;;;;;;;14.95;53.30;103358.13;5072207;28;20028;-70
2023/02/27 00:37:33;;;;;;;15.90;2.90;;;;;;;14.97;52.05;103357.88;5072373;28;20383;-73
2023/02/27 00:39:59;;;;;;;6.47;1.40;;;;;;;14.90;50.94;103358.16;5072234;28;20059;-74
2023/02/27 00:42:26;;;;;;;4.47;1.25;;;;;;;15.10;49.81;103348.16;5072469;28;20021;-72
2023/02/27 00:44:51;;;;;;;4.07;1.05;;;;;;;14.92;49.96;103353.19;5072490;28;20017;-74
2023/02/27 00:47:17;;;;;;;9.10;2.10;;;;;;;15.17;49.51;103351.44;5072415;28;20154;-68
2023/02/27 00:49:43;;;;;;;4.63;1.23;;;;;;;14.94;49.69;103358.41;5072333;28;20032;-68
2023/02/27 00:52:09;;;;;;;3.45;1.40;;;;;;;14.97;49.40;103355.94;5072335;28;20012;-74
2023/02/27 00:54:35;;;;;;;6.85;1.65;;;;;;;15.21;48.87;103355.31;5073300;28;20519;-69
2023/02/27 00:57:00;;;;;;;6.35;1.77;;;;;;;15.08;49.43;103361.41;5083315;28;20020;-68
2023/02/27 00:59:26;;;;;;;3.58;1.45;;;;;;;15.01;49.04;103358.13;5091313;28;20074;-68
2023/02/27 01:01:52;;;;;;;4.97;1.42;;;;;;;15.10;49.05;103362.75;5092747;28;20529;-74
2023/02/27 01:04:17;;;;;;;5.68;1.30;;;;;;;15.10;49.96;103364.69;5092393;28;20367;-68
2023/02/27 01:06:43;;;;;;;5.93;1.58;;;;;;;14.97;52.65;103361.44;5092342;28;20024;-68
2023/02/27 01:09:09;;;;;;;10.25;1.83;;;;;;;15.04;53.82;103365.81;5092436;28;20077;-69
2023/02/27 01:11:34;;;;;;;6.80;1.95;;;;;;;15.16;53.59;103353.38;5092535;28;20028;-72
2023/02/27 01:14:00;;;;;;;7.13;1.40;;;;;;;15.04;53.58;103355.63;5092473;28;20490;-68
2023/02/27 01:16:26;;;;;;;11.60;2.88;;;;;;;15.25;53.67;103359.13;5085435;28;20098;-73
2023/02/27 01:18:52;;;;;;;6.75;2.33;;;;;;;15.40;53.21;103364.56;5071748;28;20022;-69
2023/02/27 01:21:17;;;;;;;7.28;1.88;;;;;;;15.15;54.26;103368.25;5072000;28;20394;-72
2023/02/27 01:23:43;;;;;;;6.03;1.90;;;;;;;15.15;54.70;103370.19;5071905;28;20094;-71
2023/02/27 01:26:09;;;;;;;13.55;1.83;;;;;;;15.21;53.51;103366.31;5071965;28;20100;-70
2023/02/27 01:28:34;;;;;;;9.57;1.40;;;;;;;15.40;53.40;103363.75;5071924;28;20055;-73
2023/02/27 01:31:00;;;;;;;4.70;1.55;;;;;;;15.43;53.57;103363.22;5071527;28;20050;-74
2023/02/27 01:33:26;;;;;;;6.25;1.88;;;;;;;15.30;53.66;103356.38;5071449;28;20063;-69
2023/02/27 01:35:52;;;;;;;9.25;2.00;;;;;;;15.36;53.28;103359.94;5071732;28;20020;-74
2023/02/27 01:38:18;;;;;;;8.93;2.47;;;;;;;15.42;52.91;103359.63;5071684;28;20489;-69
2023/02/27 01:40:44;;;;;;;4.00;1.50;;;;;;;15.51;52.71;103363.44;5072986;28;20028;-69
2023/02/27 01:43:18;;;;;;;10.77;2.00;;;;;;;14.93;52.51;103354.00;5075423;28;20391;-70
2023/02/27 01:45:48;;;;;;;12.30;2.25;;;;;;;15.10;52.70;103364.69;5075463;28;20020;-69
2023/02/27 01:48:33;;;;;;;4.30;1.42;;;;;;;15.05;52.42;103362.78;5075390;28;20391;-69
2023/02/27 01:51:13;;;;;;;5.95;1.38;;;;;;;14.96;52.35;103365.28;5075456;28;20098;-69
2023/02/27 01:53:40;;;;;;;6.75;2.25;;;;;;;15.23;51.62;103364.91;5074958;28;20040;-69
2023/02/27 01:56:15;;;;;;;5.88;1.50;;;;;;;14.94;52.17;103370.22;5075196;28;20183;-68
2023/02/27 01:58:44;;;;;;;5.90;2.25;;;;;;;15.06;52.80;103367.19;5075088;28;20427;-68
2023/02/27 02:01:09;;;;;;;10.05;2.22;;;;;;;15.02;52.79;103368.84;5075014;28;20020;-73
2023/02/27 02:03:43;;;;;;;6.22;1.95;;;;;;;15.04;52.52;103365.81;5075025;28;20039;-68
2023/02/27 02:06:09;;;;;;;9.68;1.80;;;;;;;15.13;52.60;103370.47;5074881;28;20032;-70
2023/02/27 02:08:40;;;;;;;7.90;1.92;;;;;;;15.26;51.73;103374.53;5074784;28;20532;-69
2023/02/27 02:11:07;;;;;;;7.72;1.80;;;;;;;15.21;51.74;103369.91;5075117;28;20059;-69
2023/02/27 02:13:34;;;;;;;9.18;2.00;;;;;;;15.26;51.35;103369.88;5075428;28;20024;-69
2023/02/27 02:16:22;;;;;;;10.77;2.30;;;;;;;15.12;51.42;103373.53;5074731;28;20028;-69
2023/02/27 02:19:06;;;;;;;5.70;1.88;;;;;;;15.10;50.87;103365.50;5074634;28;20035;-68
2023/02/27 02:22:02;;;;;;;8.25;1.90;;;;;;;15.12;51.47;103366.06;5075050;28;20028;-69
2023/02/27 02:24:48;;;;;;;7.13;1.75;;;;;;;14.91;52.94;103368.06;5074654;28;20036;-72
2023/02/27 02:27:44;;;;;;;6.30;2.10;;;;;;;14.81;51.89;103367.22;5074893;28;20071;-68
2023/02/27 02:30:31;;;;;;;16.92;3.05;;;;;;;14.99;51.90;103363.91;5074712;28;20040;-68
2023/02/27 02:33:06;;;;;;;4.68;1.58;;;;;;;14.98;51.70;103362.25;5074399;28;20028;-72
2023/02/27 02:35:50;;;;;;;8.15;1.42;;;;;;;15.04;52.30;103357.53;5074667;28;20127;-68
2023/02/27 02:38:39;;;;;;;6.78;1.92;;;;;;;15.05;52.74;103361.97;5072158;28;20502;-68
2023/02/27 02:41:14;;;;;;;8.93;2.15;;;;;;;14.88;52.45;103363.09;5074433;28;20025;-68
2023/02/27 02:44:06;;;;;;;7.22;1.67;;;;;;;14.80;52.74;103362.84;5074351;28;20037;-71
2023/02/27 02:46:45;;;;;;;9.35;2.25;;;;;;;14.72;51.90;103364.22;5073905;28;20045;-68
2023/02/27 02:49:32;;;;;;;7.85;2.15;;;;;;;14.52;52.77;103353.25;5073392;28;20031;-69
2023/02/27 02:52:08;;;;;;;5.65;1.50;;;;;;;14.74;52.44;103358.47;5074233;28;20039;-68
2023/02/27 02:54:48;;;;;;;7.45;1.52;;;;;;;14.58;52.54;103352.94;5073215;28;20386;-69
2023/02/27 02:57:22;;;;;;;4.68;1.05;;;;;;;14.60;51.56;103364.53;5073136;28;20141;-68
2023/02/27 03:00:01;;;;;;;7.75;1.90;;;;;;;14.52;51.17;103378.00;5074019;28;20033;-69
2023/02/27 03:02:32;;;;;;;6.97;1.95;;;;;;;14.68;50.64;103366.72;5073687;28;20032;-68
2023/02/27 03:05:05;;;;;;;7.18;2.90;;;;;;;14.98;49.83;103365.00;5073766;28;20024;-68
2023/02/27 03:08:01;;;;;;;7.22;1.63;;;;;;;15.11;49.62;103369.09;5073803;28;20024;-68
2023/02/27 03:11:09;;;;;;;6.35;1.77;;;;;;;15.10;49.32;103361.94;5073732;28;20453;-68
2023/02/27 03:13:45;;;;;;;8.15;1.80;;;;;;;15.03;49.77;103364.97;5073554;28;20123;-68
2023/02/27 03:16:20;;;;;;;4.03;1.55;;;;;;;14.97;50.46;103361.44;5073758;28;20024;-68
2023/02/27 03:19:07;;;;;;;7.43;1.83;;;;;;;14.94;50.35;103369.41;5073590;28;20108;-72
2023/02/27 03:21:37;;;;;;;7.30;1.90;;;;;;;15.11;49.67;103369.09;5073610;28;20032;-69
2023/02/27 03:24:07;;;;;;;7.57;1.70;;;;;;;15.16;49.70;103369.09;5073647;28;20032;-69
2023/02/27 03:26:39;;;;;;;8.90;3.28;;;;;;;15.07;50.41;103368.00;5073374;28;20032;-68
2023/02/27 03:29:18;;;;;;;8.68;1.90;;;;;;;14.89;51.19;103364.75;5072829;28;20032;-68
2023/02/27 03:31:58;;;;;;;7.22;1.67;;;;;;;15.06;50.40;103371.88;5073436;28;20393;-68
2023/02/27 03:34:33;;;;;;;6.70;2.13;;;;;;;14.84;50.74;103373.03;5073394;28;20063;-68
2023/02/27 03:37:20;;;;;;;8.38;2.15;;;;;;;15.21;50.37;103367.16;5073208;28;20094;-70
2023/02/27 03:39:55;;;;;;;13.13;1.80;;;;;;;14.97;50.78;103371.63;5071537;28;20111;-69
2023/02/27 03:42:33;;;;;;;6.00;2.08;;;;;;;15.08;49.93;103366.91;5073245;28;20029;-71
2023/02/27 03:45:27;;;;;;;7.00;2.47;;;;;;;14.64;50.53;103373.84;5072158;28;20486;-68
2023/02/27 03:47:53;;;;;;;6.97;2.28;;;;;;;14.78;50.28;103374.13;5056027;28;20062;-68
2023/02/27 03:50:18;;;;;;;5.03;1.42;;;;;;;14.85;50.00;103371.91;5073170;28;20123;-69
2023/02/27 03:52:45;;;;;;;7.30;1.85;;;;;;;15.11;49.18;103369.91;5072301;28;20352;-68
2023/02/27 03:55:17;;;;;;;8.45;1.83;;;;;;;14.98;49.37;103374.09;5072189;28;20044;-73
2023/02/27 03:57:45;;;;;;;8.50;1.60;;;;;;;14.88;49.08;103374.09;5073156;28;20020;-68
2023/02/27 04:00:15;;;;;;;7.95;1.52;;;;;;;14.92;48.96;103366.94;5072420;28;20095;-73
2023/02/27 04:02:44;;;;;;;13.55;2.17;;;;;;;14.93;48.75;103368.59;5064566;28;20056;-68
2023/02/27 04:05:10;;;;;;;10.77;2.85;;;;;;;14.97;48.87;103366.94;5072690;28;20402;-68
2023/02/27 04:07:38;;;;;;;5.95;1.67;;;;;;;14.80;49.52;103365.59;5072802;28;20036;-68
2023/02/27 04:10:28;;;;;;;8.57;2.50;;;;;;;14.24;49.97;103363.66;5072487;28;20033;-68
2023/02/27 04:13:00;;;;;;;4.32;1.17;;;;;;;14.80;48.85;103371.09;5072679;28;20028;-68
2023/02/27 04:15:42;;;;;;;5.22;1.38;;;;;;;14.97;47.80;103366.94;5072323;28;20039;-68
2023/02/27 04:18:26;;;;;;;6.05;1.30;;;;;;;14.95;47.88;103366.38;5072556;28;20040;-69
2023/02/27 04:20:57;;;;;;;5.80;1.40;;;;;;;15.20;47.25;103360.00;5052760;28;20093;-68
2023/02/27 04:23:23;;;;;;;8.90;1.75;;;;;;;15.16;47.97;103358.06;5066978;28;20029;-68
2023/02/27 04:26:15;;;;;;;5.95;1.60;;;;;;;15.27;48.39;103360.50;5072440;28;20037;-68
2023/02/27 04:28:48;;;;;;;8.05;2.65;;;;;;;15.06;49.34;103363.63;5072425;28;20028;-68
2023/02/27 04:31:45;;;;;;;6.72;2.45;;;;;;;15.24;48.90;103369.31;5072470;28;20389;-69
2023/02/27 04:34:11;;;;;;;4.53;1.52;;;;;;;15.47;48.48;103376.13;5072148;28;20036;-68
2023/02/27 04:37:11;;;;;;;14.77;1.83;;;;;;;15.50;48.33;103372.81;5072342;28;20041;-73
2023/02/27 04:39:50;;;;;;;11.32;2.30;;;;;;;15.52;48.54;103375.28;5070267;28;20071;-73
2023/02/27 04:42:22;;;;;;;7.30;1.55;;;;;;;15.35;48.52;103378.38;5071058;28;20496;-68
2023/02/27 04:44:50;;;;;;;8.60;1.83;;;;;;;15.49;48.39;103378.59;5069137;28;20086;-68
2023/02/27 04:47:18;;;;;;;15.60;2.05;;;;;;;15.65;47.89;103371.94;5072156;28;20032;-68
2023/02/27 04:49:53;;;;;;;7.75;2.15;;;;;;;15.40;48.77;103372.84;5072049;28;20107;-68
2023/02/27 04:52:25;;;;;;;4.75;1.55;;;;;;;15.07;49.74;103371.59;5072125;28;20024;-72
2023/02/27 04:54:50;;;;;;;4.13;1.48;;;;;;;15.12;49.74;103373.53;5071961;28;20086;-74
2023/02/27 04:57:23;;;;;;;5.93;1.67;;;;;;;15.30;49.05;103374.81;5072265;28;20111;-72
2023/02/27 04:59:54;;;;;;;7.07;1.88;;;;;;;15.13;49.58;103391.69;5072099;28;20086;-68
2023/02/27 05:02:33;;;;;;;8.80;1.75;;;;;;;15.09;49.89;103379.56;5072079;28;20048;-68
2023/02/27 05:05:00;;;;;;;;;;;;;;;14.92;50.10;103383.47;5065939;28;20490;-73
2023/02/27 05:07:32;;;;;;;7.05;1.80;;;;;;;15.20;49.82;103390.28;5072459;28;19916;-71
2023/02/27 05:10:03;;;;;;;12.07;2.42;;;;;;;15.33;49.39;103382.50;5072069;28;20047;-73
2023/02/27 05:12:53;;;;;;;7.60;1.88;;;;;;;15.41;49.33;103393.78;5071938;28;20052;-74
2023/02/27 05:15:54;;;;;;;12.70;2.35;;;;;;;15.54;48.96;103397.88;5071027;28;20082;-72
2023/02/27 05:18:22;;;;;;;5.70;2.10;;;;;;;15.53;48.87;103391.53;5033272;28;20152;-68
2023/02/27 05:21:05;;;;;;;9.88;2.13;;;;;;;15.30;49.95;103392.19;5051478;28;20048;-72
2023/02/27 05:23:42;;;;;;;6.28;1.90;;;;;;;15.19;49.99;103390.56;5067141;28;20111;-68
2023/02/27 05:26:31;;;;;;;11.65;2.58;;;;;;;15.30;49.59;103383.09;5076151;28;20094;-69
2023/02/27 05:29:30;;;;;;;18.75;3.42;;;;;;;15.25;49.34;103394.94;5075844;28;20085;-72
2023/02/27 05:32:08;;;;;;;8.02;1.98;;;;;;;15.35;49.35;103383.91;5075879;28;20405;-68
2023/02/27 05:34:48;;;;;;;12.45;2.70;;;;;;;15.58;48.67;103387.94;5075360;28;20036;-73
2023/02/27 05:37:30;;;;;;;9.77;2.10;;;;;;;15.23;48.88;103388.88;5061436;28;20544;-68
2023/02/27 05:39:58;;;;;;;10.20;2.38;;;;;;;15.28;49.13;103388.88;5075551;28;20024;-69
2023/02/27 05:42:28;;;;;;;4.57;1.67;;;;;;;15.34;48.89;103382.25;5075490;28;20028;-71
2023/02/27 05:45:19;;;;;;;9.70;2.25;;;;;;;15.21;48.58;103396.63;5075208;28;20047;-68
2023/02/27 05:47:51;;;;;;;6.53;1.83;;;;;;;15.15;48.89;103400.47;5072195;28;20434;-68
2023/02/27 05:50:21;;;;;;;5.50;1.65;;;;;;;15.51;47.98;103384.66;5075257;28;20098;-68
2023/02/27 05:52:50;;;;;;;5.65;1.70;;;;;;;15.24;48.29;103387.78;5075537;28;20037;-68
2023/02/27 05:55:31;;;;;;;7.00;1.60;;;;;;;15.55;47.09;103389.31;5074852;28;20122;-68
2023/02/27 05:58:08;;;;;;;7.85;2.00;;;;;;;15.55;47.08;103394.00;5055390;28;20047;-74
2023/02/27 06:00:36;;;;;;;8.38;2.33;;;;;;;15.55;47.21;103386.56;5055356;28;20531;-73
2023/02/27 06:03:02;;;;;;;12.30;2.05;;;;;;;15.42;47.64;103387.19;5055297;28;20063;-69
2023/02/27 06:05:28;;;;;;;10.98;2.20;;;;;;;15.50;46.98;103386.59;5055160;28;20024;-73
2023/02/27 06:07:54;;;;;;;3.50;1.50;;;;;;;15.43;47.22;103382.50;5055286;28;20039;-68
2023/02/27 06:10:21;;;;;;;5.32;1.45;;;;;;;15.64;46.50;103384.09;5071018;28;20025;-68
2023/02/27 06:12:47;;;;;;;7.07;2.30;;;;;;;15.41;46.87;103377.25;5074775;28;20040;-68
2023/02/27 06:15:13;;;;;;;7.10;1.70;;;;;;;15.55;46.49;103378.28;5074645;28;20079;-68
2023/02/27 06:17:38;;;;;;;10.18;1.80;;;;;;;15.36;47.08;103381.97;5074624;28;20064;-68
2023/02/27 06:20:06;;;;;;;13.07;2.35;;;;;;;15.40;46.82;103386.63;5074663;28;20028;-68
2023/02/27 06:22:33;;;;;;;7.20;1.90;;;;;;;15.56;46.21;103384.63;5059927;28;20097;-69
2023/02/27 06:24:58;;;;;;;13.07;2.35;;;;;;;15.57;46.27;103385.44;5074912;28;20431;-69
2023/02/27 06:27:25;;;;;;;7.97;2.03;;;;;;;15.69;45.79;103377.72;5074070;28;20107;-69
2023/02/27 06:29:52;;;;;;;6.47;1.77;;;;;;;15.58;46.20;103376.91;5075092;28;20025;-68
2023/02/27 06:32:19;;;;;;;7.65;2.13;;;;;;;15.33;47.31;103377.81;5074665;28;20471;-68
2023/02/27 06:34:44;;;;;;;8.05;2.28;;;;;;;15.21;47.74;103371.81;5074441;28;20186;-68
2023/02/27 06:37:10;;;;;;;10.60;2.53;;;;;;;15.36;47.05;103381.97;5072687;28;20137;-68
2023/02/27 06:39:36;;;;;;;17.75;2.08;;;;;;;15.17;47.52;103388.06;5073004;28;20083;-72
2023/02/27 06:42:02;;;;;;;7.45;2.25;;;;;;;15.17;47.03;103392.75;5073773;28;20352;-69
2023/02/27 06:44:28;;;;;;;13.05;1.98;;;;;;;15.06;47.09;103388.41;5074340;28;20040;-68
2023/02/27 06:46:54;;;;;;;7.90;2.63;;;;;;;15.14;46.56;103390.56;5074594;28;20475;-69
2023/02/27 06:49:20;;;;;;;3.50;1.50;;;;;;;15.31;46.09;103393.00;5074342;28;20429;-68
2023/02/27 06:51:46;;;;;;;7.32;1.75;;;;;;;15.33;46.38;103386.09;5073952;28;20043;-69
2023/02/27 06:54:12;;;;;;;12.45;2.45;;;;;;;15.43;46.24;103397.09;5073947;28;20049;-68
2023/02/27 06:56:38;;;;;;;8.02;2.10;;;;;;;15.37;46.77;103395.47;5074090;28;20037;-68
2023/02/27 06:59:04;;;;;;;6.55;1.55;;;;;;;15.25;47.08;103386.66;5074144;28;20604;-68
2023/02/27 07:01:30;;;;;;;8.07;1.95;;;;;;;15.52;46.07;103392.63;5074122;28;20074;-70
2023/02/27 07:03:55;;;;;;;14.60;3.45;;;;;;;15.23;46.73;103399.91;5072702;28;20033;-68
2023/02/27 07:06:21;;;;;;;7.43;1.83;;;;;;;15.27;46.69;103406.53;5074147;28;20103;-70
2023/02/27 07:08:47;;;;;;;8.07;1.85;;;;;;;15.23;46.95;103408.16;5073772;28;20082;-69
2023/02/27 07:11:13;;;;;;;8.40;1.88;;;;;;;15.16;46.76;103397.44;5074032;28;20039;-68
2023/02/27 07:13:38;;;;;;;5.72;1.25;;;;;;;15.10;46.73;103408.75;5073726;28;20040;-68
2023/02/27 07:16:04;;;;;;;6.15;1.80;;;;;;;15.22;46.15;103404.59;5073759;28;20356;-73
2023/02/27 07:18:30;;;;;;;13.40;2.30;;;;;;;15.24;46.10;103398.81;5073768;28;20079;-74
2023/02/27 07:20:56;;;;;;;3.65;1.85;;;;;;;15.32;46.23;103405.66;5073345;28;20068;-70
2023/02/27 07:23:22;;;;;;;11.23;3.10;;;;;;;15.27;46.42;103410.09;5073446;28;20032;-68
2023/02/27 07:25:48;;;;;;;10.45;2.40;;;;;;;15.36;46.52;103409.53;5073905;28;20107;-73
2023/02/27 07:28:14;;;;;;;9.18;2.08;;;;;;;15.12;47.24;103409.31;5073761;28;20487;-68
2023/02/27 07:30:40;;;;;;;5.60;2.10;;;;;;;14.98;47.55;103407.13;5073647;28;20103;-68
2023/02/27 07:33:06;;;;;;;7.45;1.88;;;;;;;15.28;46.96;103408.16;5073337;28;20516;-68
2023/02/27 07:35:32;;;;;;;11.68;2.67;;;;;;;15.27;46.68;103415.59;5073208;28;20032;-69
2023/02/27 07:37:57;;;;;;;10.65;2.63;;;;;;;15.16;47.49;103411.22;5072483;28;20066;-68
2023/02/27 07:40:23;;;;;;;8.73;2.13;;;;;;;15.09;48.33;103416.19;5073376;28;20116;-67
2023/02/27 07:42:49;;;;;;;8.65;2.55;;;;;;;14.92;48.13;103418.44;5073053;28;20491;-71
2023/02/27 07:45:17;;;;;;;8.38;1.55;;;;;;;14.82;47.76;103427.53;5071752;28;20032;-67
2023/02/27 07:47:43;;;;;;;13.68;2.65;;;;;;;15.04;47.22;103429.97;5073332;28;20069;-68
2023/02/27 07:50:12;;;;;;;11.57;2.15;;;;;;;15.17;46.58;103436.81;5072744;28;20020;-68
2023/02/27 07:52:42;;;;;;;12.85;2.15;;;;;;;15.13;47.06;103438.50;5072715;28;20028;-68
2023/02/27 07:55:09;;;;;;;14.05;2.65;;;;;;;15.14;47.34;103446.47;5071491;28;20072;-70
2023/02/27 07:57:35;;;;;;;6.25;1.73;;;;;;;15.41;46.74;103437.03;5072918;28;20034;-72
2023/02/27 08:00:03;;;;;;;10.18;3.13;;;;;;;15.49;46.48;103439.22;5072913;28;20111;-73
2023/02/27 08:02:28;;;;;;;15.65;2.28;;;;;;;15.40;46.70;103446.41;5072860;28;20059;-72
2023/02/27 08:04:54;;;;;;;9.63;2.20;;;;;;;15.21;47.36;103451.69;5071247;28;20056;-72
2023/02/27 08:07:19;;;;;;;9.63;2.30;;;;;;;15.27;47.29;103454.16;5072750;28;20028;-69
2023/02/27 08:09:45;;;;;;;8.20;2.47;;;;;;;15.20;47.58;103441.78;5072500;28;20028;-73
2023/02/27 08:12:11;;;;;;;8.60;2.53;;;;;;;15.06;47.89;103435.22;5072148;28;20067;-72
2023/02/27 08:14:37;;;;;;;7.88;2.50;;;;;;;15.21;47.65;103440.69;5071869;28;20090;-71
2023/02/27 08:17:03;;;;;;;8.30;1.80;;;;;;;15.22;47.42;103442.34;5072493;28;20111;-73
2023/02/27 08:19:28;;;;;;;11.55;3.70;;;;;;;14.99;47.81;103452.84;5072746;28;20127;-71
2023/02/27 08:21:54;;;;;;;5.22;1.67;;;;;;;14.89;48.37;103432.75;5072577;28;20459;-72
2023/02/27 08:24:20;;;;;;;10.52;2.60;;;;;;;14.94;48.47;103450.06;5072695;28;20028;-71
2023/02/27 08:26:46;;;;;;;9.20;1.90;;;;;;;14.81;48.47;103449.81;5071082;28;20032;-70
2023/02/27 08:29:11;;;;;;;11.40;2.00;;;;;;;14.85;48.21;103459.19;5071799;28;20037;-71
2023/02/27 08:31:37;;;;;;;8.70;2.00;;;;;;;14.74;47.81;103449.28;5072434;28;20029;-70
2023/02/27 08:34:03;;;;;;;11.30;2.15;;;;;;;14.49;48.46;103461.91;5072535;28;20425;-69
2023/02/27 08:36:28;;;;;;;7.95;2.75;;;;;;;14.51;48.45;103462.47;5072361;28;20107;-70
2023/02/27 08:38:54;;;;;;;9.88;2.38;;;;;;;14.88;47.57;103466.88;5072458;28;20110;-73
2023/02/27 08:41:21;;;;;;;5.53;1.33;;;;;;;14.81;47.75;103466.31;5071139;28;20471;-70
2023/02/27 08:43:47;;;;;;;6.60;1.30;;;;;;;14.97;46.75;103463.31;5071062;28;20109;-73
2023/02/27 08:46:12;;;;;;;19.83;5.93;;;;;;;14.97;46.94;103463.31;5071267;28;20116;-74
2023/02/27 08:48:38;;;;;;;10.18;2.75;;;;;;;14.80;47.77;103471.00;5071607;28;20036;-74
2023/02/27 08:51:04;;;;;;;10.95;2.58;;;;;;;14.74;47.42;103461.13;5071156;28;20462;-73
2023/02/27 08:53:29;;;;;;;6.93;1.70;;;;;;;14.83;47.83;103470.47;5070870;28;20051;-73
2023/02/27 08:55:55;;;;;;;7.60;1.85;;;;;;;14.76;48.08;103466.34;5071004;28;20026;-74
2023/02/27 08:58:21;;;;;;;8.45;1.23;;;;;;;14.71;47.97;103470.72;5071152;28;20414;-71
2023/02/27 09:00:46;;;;;;;7.38;1.80;;;;;;;14.75;47.55;103476.53;5071065;28;20082;-72
2023/02/27 09:03:12;;;;;;;6.13;1.73;;;;;;;14.89;47.32;103476.81;5070991;28;20043;-68
2023/02/27 09:05:38;;;;;;;8.32;1.48;;;;;;;14.91;47.42;103475.41;5068257;28;20029;-69
2023/02/27 09:08:04;;;;;;;12.05;1.77;;;;;;;15.18;46.99;103482.53;5070970;28;20028;-72
2023/02/27 09:10:31;;;;;;;7.45;1.58;;;;;;;14.96;47.63;103483.69;5071556;28;20024;-69
2023/02/27 09:12:58;;;;;;;8.27;1.33;;;;;;;15.15;47.55;103483.94;5071319;28;20178;-72
2023/02/27 09:15:24;;;;;;;3.33;1.27;;;;;;;14.92;47.64;103490.00;5070830;28;20027;-69
2023/02/27 09:17:50;;;;;;;10.63;4.93;;;;;;;15.06;46.56;103493.03;5070866;28;20031;-68
2023/02/27 09:20:16;;;;;;;4.93;1.00;;;;;;;14.95;46.15;103490.25;5070807;28;20445;-72
2023/02/27 09:22:41;;;;;;;3.72;1.20;;;;;;;15.34;45.07;103486.09;5070670;28;20078;-69
2023/02/27 09:25:07;;;;;;;2.88;0.88;;;;;;;14.93;45.78;103500.75;5070749;28;20107;-72
2023/02/27 09:27:34;;;;;;;6.20;1.85;;;;;;;15.33;45.44;103501.78;5070710;28;20063;-73
2023/02/27 09:30:00;;;;;;;4.15;1.05;;;;;;;15.54;45.04;103499.81;5070686;28;20070;-70
2023/02/27 09:32:26;;;;;;;3.78;1.55;;;;;;;15.31;45.57;103508.69;5070725;28;20382;-72
2023/02/27 09:34:52;;;;;;;3.25;1.50;;;;;;;15.41;45.06;103506.72;5066632;28;20115;-72
2023/02/27 09:37:18;;;;;;;7.50;1.40;;;;;;;15.44;44.85;103500.69;5070837;28;20142;-70
2023/02/27 09:39:44;;;;;;;5.95;0.70;;;;;;;15.04;46.16;103507.09;5069948;28;20170;-77
2023/02/27 09:42:23;;;;;;;7.03;1.40;;;;;;;14.93;46.49;103506.25;5065832;28;20028;-73
2023/02/27 09:45:05;;;;;;;4.75;1.13;;;;;;;14.63;47.25;103504.28;5072146;28;20044;-78
2023/02/27 09:47:41;;;;;;;3.03;0.90;;;;;;;14.69;47.20;103510.66;5071798;28;20418;-76
2023/02/27 09:50:16;;;;;;;2.15;1.05;;;;;;;14.88;46.60;103510.91;5066129;28;20024;-74
2023/02/27 09:52:43;;;;;;;4.00;1.10;;;;;;;14.87;46.44;103515.59;5068523;28;20521;-76
2023/02/27 09:55:19;;;;;;;4.53;1.17;;;;;;;14.96;46.04;103524.13;5049669;28;20045;-75
2023/02/27 09:57:48;;;;;;;5.57;0.88;;;;;;;15.05;46.05;103518.91;5050523;28;20031;-69
2023/02/27 10:00:38;;;;;;;6.20;0.90;;;;;;;15.27;45.89;103508.44;5051946;28;20392;-69
2023/02/27 10:03:28;;;;;;;5.82;2.33;;;;;;;15.38;46.26;103512.00;5053727;28;20017;-75
2023/02/27 10:06:25;;;;;;;2.05;0.68;;;;;;;15.31;45.94;103519.72;5056800;28;20025;-78
2023/02/27 10:09:00;;;;;;;14.25;1.30;;;;;;;14.96;47.17;103513.97;5052275;28;20029;-82
2023/02/27 10:11:37;;;;;;;2.30;0.65;;;;;;;14.92;46.78;103515.59;5072065;28;20125;-75
2023/02/27 10:14:15;;;;;;;5.30;1.15;;;;;;;15.03;46.99;103518.34;5072361;28;20103;-78
2023/02/27 10:16:41;;;;;;;2.25;0.35;;;;;;;14.82;47.87;103526.63;5071368;28;20039;-79
2023/02/27 10:19:15;;;;;;;3.08;0.70;;;;;;;14.97;47.40;103523.88;5071076;28;20021;-75
2023/02/27 10:21:50;;;;;;;6.75;1.20;;;;;;;14.81;47.70;103519.47;5072058;28;20072;-75
2023/02/27 10:24:28;;;;;;;2.53;0.60;;;;;;;15.16;47.26;103518.63;5074024;28;20104;-76
2023/02/27 10:26:59;;;;;;;6.93;1.20;;;;;;;15.24;47.52;103520.00;5071892;28;20495;-74
2023/02/27 10:29:38;;;;;;;3.13;0.63;;;;;;;15.39;47.08;103506.19;5086558;28;20048;-76
2023/02/27 10:32:24;;;;;;;4.82;1.17;;;;;;;15.14;46.59;103520.00;5082164;28;20490;-75
2023/02/27 10:35:16;;;;;;;3.60;1.10;;;;;;;15.20;46.56;103522.50;5072179;28;20028;-78
2023/02/27 10:37:51;;;;;;;9.02;1.95;;;;;;;15.13;47.60;103518.38;5073124;28;20044;-70
2023/02/27 10:40:19;;;;;;;2.38;0.77;;;;;;;15.31;47.43;103515.03;5072381;28;20028;-75
2023/02/27 10:42:46;;;;;;;9.57;1.48;;;;;;;15.40;47.19;103515.28;5072001;28;20040;-71
2023/02/27 10:45:15;;;;;;;3.53;0.70;;;;;;;15.69;47.26;103512.75;5069259;28;20038;-70
2023/02/27 10:47:42;;;;;;;4.20;0.80;;;;;;;15.88;46.29;103513.81;5069554;28;20049;-72
2023/02/27 10:50:21;;;;;;;3.85;1.00;;;;;;;16.11;45.52;103519.78;5071712;28;20755;-76
2023/02/27 10:52:49;;;;;;;7.82;1.23;;;;;;;16.29;45.73;103513.59;5072774;28;20043;-77
2023/02/27 10:55:23;;;;;;;4.82;1.08;;;;;;;16.07;46.12;103517.56;5071792;28;20040;-77
2023/02/27 10:57:48;;;;;;;12.55;1.63;;;;;;;15.86;46.79;103523.44;5056931;28;20033;-74
2023/02/27 11:00:34;;;;;;;2.88;1.23;;;;;;;15.89;45.44;103515.47;5090834;28;20032;-75
2023/02/27 11:03:00;;;;;;;8.07;1.08;;;;;;;15.92;45.75;103520.41;5093884;28;20028;-80
2023/02/27 11:05:31;;;;;;;2.58;0.50;;;;;;;16.04;45.36;103520.91;5093168;28;20024;-71
2023/02/27 11:08:19;;;;;;;1.45;0.65;;;;;;;15.91;45.40;103518.75;5092745;28;20040;-82
2023/02/27 11:11:02;;;;;;;3.08;0.95;;;;;;;15.45;46.69;103521.63;5094708;28;20024;-89
2023/02/27 11:13:34;;;;;;;4.20;1.15;;;;;;;15.71;47.75;103525.16;5094395;28;20063;-70
2023/02/27 11:16:07;;;;;;;6.47;1.30;;;;;;;15.77;47.80;103532.31;5094149;28;20016;-72
2023/02/27 11:18:35;;;;;;;5.45;1.00;;;;;;;15.54;48.74;103530.97;5092944;28;20490;-88
2023/02/27 11:21:22;;;;;;;1.40;0.60;;;;;;;16.06;48.63;103528.91;5092792;28;20020;-77
2023/02/27 11:23:58;;;;;;;3.72;0.98;;;;;;;16.02;49.08;103534.16;5094033;28;20075;-71
2023/02/27 11:26:37;;;;;;;5.78;0.90;;;;;;;16.08;49.45;103534.94;5093523;28;20387;-87
2023/02/27 11:29:10;;;;;;;3.58;1.00;;;;;;;15.90;50.11;103527.31;5082702;28;20395;-73
2023/02/27 11:31:38;;;;;;;1.88;0.73;;;;;;;15.52;50.44;103544.19;5073286;28;20056;-79
2023/02/27 11:34:07;;;;;;;2.22;0.65;;;;;;;15.24;50.50;103536.53;5071823;28;20036;-77
2023/02/27 11:36:59;;;;;;;2.38;0.55;;;;;;;15.40;50.33;103542.84;5071951;28;20036;-71
2023/02/27 11:39:35;;;;;;;3.30;0.88;;;;;;;15.41;50.42;103533.47;5068511;28;20443;-70
2023/02/27 11:42:41;;;;;;;2.35;0.95;;;;;;;15.83;50.69;103538.63;5069962;28;20115;-80
2023/02/27 11:45:25;;;;;;;3.58;0.70;;;;;;;15.95;51.31;103525.38;5048405;28;20060;-81